sensor_id;sensor_type;location;lat;lon;timestamp;temperature;humidity
15036;DHT22;7615;48.574;13.474;2023-07-29T00:18:00;19.20;99.90
15036;DHT22;7615;48.574;13.474;2023-07-29T00:20:27;19.20;99.90
15036;DHT22;7615;48.574;13.474;2023-07-29T00:22:54;19.10;99.90
15036;DHT22;7615;48.574;13.474;2023-07-29T00:25:22;19.00;99.90
15036;DHT22;7615;48.574;13.474;2023-07-29T00:27:59;18.80;99.90
15036;DHT22;7615;48.574;13.474;2023-07-29T00:30:27;18.80;99.90
15036;DHT22;7615;48.574;13.474;2023-07-29T00:32:54;18.70;99.90
15036;DHT22;7615;48.574;13.474;2023-07-29T00:35:22;18.60;99.90
15036;DHT22;7615;48.574;13.474;2023-07-29T00:38:01;18.60;99.90
15036;DHT22;7615;48.574;13.474;2023-07-29T00:40:29;18.60;99.90
15036;DHT22;7615;48.574;13.474;2023-07-29T00:42:56;18.50;99.90
15036;DHT22;7615;48.574;13.474;2023-07-29T00:45:24;18.50;99.90
15036;DHT22;7615;48.574;13.474;2023-07-29T00:47:51;18.50;99.90
15036;DHT22;7615;48.574;13.474;2023-07-29T00:50:18;18.40;99.90
15036;DHT22;7615;48.574;13.474;2023-07-29T00:52:46;18.40;99.90
15036;DHT22;7615;48.574;13.474;2023-07-29T00:55:13;18.50;99.90
15036;DHT22;7615;48.574;13.474;2023-07-29T00:57:41;18.30;99.90
15036;DHT22;7615;48.574;13.474;2023-07-29T01:00:08;18.50;99.90
15036;DHT22;7615;48.574;13.474;2023-07-29T01:02:36;18.50;99.90
15036;DHT22;7615;48.574;13.474;2023-07-29T01:05:03;18.50;99.90
15036;DHT22;7615;48.574;13.474;2023-07-29T01:07:36;18.60;99.90
15036;DHT22;7615;48.574;13.474;2023-07-29T01:10:10;18.60;99.90
15036;DHT22;7615;48.574;13.474;2023-07-29T01:12:48;18.60;99.90
15036;DHT22;7615;48.574;13.474;2023-07-29T01:15:21;18.30;99.90
15036;DHT22;7615;48.574;13.474;2023-07-29T01:17:53;18.30;99.90
15036;DHT22;7615;48.574;13.474;2023-07-29T01:20:21;18.10;99.90
15036;DHT22;7615;48.574;13.474;2023-07-29T01:22:50;18.10;99.90
15036;DHT22;7615;48.574;13.474;2023-07-29T01:25:19;18.10;99.90
15036;DHT22;7615;48.574;13.474;2023-07-29T01:27:48;18.10;99.90
15036;DHT22;7615;48.574;13.474;2023-07-29T01:30:17;18.20;99.90
15036;DHT22;7615;48.574;13.474;2023-07-29T01:32:49;18.10;99.90
15036;DHT22;7615;48.574;13.474;2023-07-29T01:35:21;18.00;99.90
15036;DHT22;7615;48.574;13.474;2023-07-29T01:37:52;18.10;99.90
15036;DHT22;7615;48.574;13.474;2023-07-29T01:40:22;18.00;99.90
15036;DHT22;7615;48.574;13.474;2023-07-29T01:42:49;18.00;99.90
15036;DHT22;7615;48.574;13.474;2023-07-29T01:45:17;18.10;99.90
15036;DHT22;7615;48.574;13.474;2023-07-29T01:47:44;18.00;99.90
15036;DHT22;7615;48.574;13.474;2023-07-29T01:50:11;17.90;99.90
15036;DHT22;7615;48.574;13.474;2023-07-29T01:52:38;18.00;99.90
15036;DHT22;7615;48.574;13.474;2023-07-29T01:55:05;18.00;99.90
15036;DHT22;7615;48.574;13.474;2023-07-29T02:00:01;18.00;99.90
15036;DHT22;7615;48.574;13.474;2023-07-29T02:02:29;18.10;99.90
15036;DHT22;7615;48.574;13.474;2023-07-29T02:04:56;18.10;99.90
15036;DHT22;7615;48.574;13.474;2023-07-29T02:07:23;18.10;99.90
15036;DHT22;7615;48.574;13.474;2023-07-29T02:09:51;18.10;99.90
15036;DHT22;7615;48.574;13.474;2023-07-29T02:12:18;18.10;99.90
15036;DHT22;7615;48.574;13.474;2023-07-29T02:14:47;18.20;99.90
15036;DHT22;7615;48.574;13.474;2023-07-29T02:17:13;18.20;99.90
15036;DHT22;7615;48.574;13.474;2023-07-29T02:19:40;18.20;99.90
15036;DHT22;7615;48.574;13.474;2023-07-29T02:22:07;18.20;99.90
15036;DHT22;7615;48.574;13.474;2023-07-29T02:24:34;18.20;99.90
15036;DHT22;7615;48.574;13.474;2023-07-29T02:27:01;18.20;99.90
15036;DHT22;7615;48.574;13.474;2023-07-29T02:29:27;18.20;99.90
15036;DHT22;7615;48.574;13.474;2023-07-29T02:31:57;18.10;99.90
15036;DHT22;7615;48.574;13.474;2023-07-29T02:34:24;18.20;99.90
15036;DHT22;7615;48.574;13.474;2023-07-29T02:36:51;18.30;99.90
15036;DHT22;7615;48.574;13.474;2023-07-29T02:39:18;18.30;99.90
15036;DHT22;7615;48.574;13.474;2023-07-29T02:41:45;18.30;99.90
15036;DHT22;7615;48.574;13.474;2023-07-29T02:44:12;18.30;99.90
15036;DHT22;7615;48.574;13.474;2023-07-29T02:46:39;18.20;99.90
15036;DHT22;7615;48.574;13.474;2023-07-29T02:49:07;18.30;99.90
15036;DHT22;7615;48.574;13.474;2023-07-29T02:51:34;18.40;99.90
15036;DHT22;7615;48.574;13.474;2023-07-29T02:54:01;18.30;99.90
15036;DHT22;7615;48.574;13.474;2023-07-29T02:56:28;18.30;99.90
15036;DHT22;7615;48.574;13.474;2023-07-29T02:58:56;18.30;99.90
15036;DHT22;7615;48.574;13.474;2023-07-29T03:01:23;18.40;99.90
15036;DHT22;7615;48.574;13.474;2023-07-29T03:03:50;18.30;99.90
15036;DHT22;7615;48.574;13.474;2023-07-29T03:06:19;18.20;99.90
15036;DHT22;7615;48.574;13.474;2023-07-29T03:08:45;18.20;99.90
15036;DHT22;7615;48.574;13.474;2023-07-29T03:11:14;18.20;99.90
15036;DHT22;7615;48.574;13.474;2023-07-29T03:13:41;18.20;99.90
15036;DHT22;7615;48.574;13.474;2023-07-29T03:16:11;18.10;99.90
15036;DHT22;7615;48.574;13.474;2023-07-29T03:18:38;18.20;99.90
15036;DHT22;7615;48.574;13.474;2023-07-29T03:21:05;18.20;99.90
15036;DHT22;7615;48.574;13.474;2023-07-29T03:23:34;18.20;99.90
15036;DHT22;7615;48.574;13.474;2023-07-29T03:26:03;18.20;99.90
15036;DHT22;7615;48.574;13.474;2023-07-29T03:28:37;18.20;99.90
15036;DHT22;7615;48.574;13.474;2023-07-29T03:31:04;18.20;99.90
15036;DHT22;7615;48.574;13.474;2023-07-29T03:33:31;18.20;99.90
15036;DHT22;7615;48.574;13.474;2023-07-29T03:35:57;18.20;99.90
15036;DHT22;7615;48.574;13.474;2023-07-29T03:38:24;18.20;99.90
15036;DHT22;7615;48.574;13.474;2023-07-29T03:40:53;18.20;99.90
15036;DHT22;7615;48.574;13.474;2023-07-29T03:43:20;18.20;99.90
15036;DHT22;7615;48.574;13.474;2023-07-29T03:45:47;18.20;99.90
15036;DHT22;7615;48.574;13.474;2023-07-29T03:48:14;18.20;99.90
15036;DHT22;7615;48.574;13.474;2023-07-29T03:50:40;18.20;99.90
15036;DHT22;7615;48.574;13.474;2023-07-29T03:53:07;18.20;99.90
15036;DHT22;7615;48.574;13.474;2023-07-29T03:55:35;18.20;99.90
15036;DHT22;7615;48.574;13.474;2023-07-29T03:58:03;18.10;99.90
15036;DHT22;7615;48.574;13.474;2023-07-29T04:00:30;18.20;99.90
15036;DHT22;7615;48.574;13.474;2023-07-29T04:02:57;18.30;99.90
15036;DHT22;7615;48.574;13.474;2023-07-29T04:05:24;18.20;99.90
15036;DHT22;7615;48.574;13.474;2023-07-29T04:07:51;18.20;99.90
15036;DHT22;7615;48.574;13.474;2023-07-29T04:10:19;18.20;99.90
15036;DHT22;7615;48.574;13.474;2023-07-29T04:12:46;18.20;99.90
15036;DHT22;7615;48.574;13.474;2023-07-29T04:15:15;18.20;99.90
15036;DHT22;7615;48.574;13.474;2023-07-29T04:17:41;18.20;99.90
15036;DHT22;7615;48.574;13.474;2023-07-29T04:20:10;18.20;99.90
15036;DHT22;7615;48.574;13.474;2023-07-29T04:22:36;18.10;99.90
15036;DHT22;7615;48.574;13.474;2023-07-29T04:25:04;18.00;99.90
15036;DHT22;7615;48.574;13.474;2023-07-29T04:27:31;18.10;99.90
15036;DHT22;7615;48.574;13.474;2023-07-29T04:29:59;18.00;99.90
15036;DHT22;7615;48.574;13.474;2023-07-29T04:32:27;18.10;99.90
15036;DHT22;7615;48.574;13.474;2023-07-29T04:34:54;18.10;99.90
15036;DHT22;7615;48.574;13.474;2023-07-29T04:37:21;18.10;99.90
15036;DHT22;7615;48.574;13.474;2023-07-29T04:39:47;18.10;99.90
15036;DHT22;7615;48.574;13.474;2023-07-29T04:42:14;18.30;99.90
15036;DHT22;7615;48.574;13.474;2023-07-29T04:44:41;18.10;99.90
15036;DHT22;7615;48.574;13.474;2023-07-29T04:47:09;18.10;99.90
15036;DHT22;7615;48.574;13.474;2023-07-29T04:49:37;18.10;99.90
15036;DHT22;7615;48.574;13.474;2023-07-29T04:52:05;18.20;99.90
15036;DHT22;7615;48.574;13.474;2023-07-29T04:54:32;18.20;99.90
15036;DHT22;7615;48.574;13.474;2023-07-29T04:56:59;18.20;99.90
15036;DHT22;7615;48.574;13.474;2023-07-29T04:59:25;18.20;99.90
15036;DHT22;7615;48.574;13.474;2023-07-29T05:01:52;18.20;99.90
15036;DHT22;7615;48.574;13.474;2023-07-29T05:04:19;18.40;99.90
15036;DHT22;7615;48.574;13.474;2023-07-29T05:06:47;18.40;99.90
15036;DHT22;7615;48.574;13.474;2023-07-29T05:09:14;18.40;99.90
15036;DHT22;7615;48.574;13.474;2023-07-29T05:11:42;18.50;99.90
15036;DHT22;7615;48.574;13.474;2023-07-29T05:14:11;18.60;99.90
15036;DHT22;7615;48.574;13.474;2023-07-29T05:16:37;18.70;99.90
15036;DHT22;7615;48.574;13.474;2023-07-29T05:19:04;18.80;99.90
15036;DHT22;7615;48.574;13.474;2023-07-29T05:21:31;18.90;99.90
15036;DHT22;7615;48.574;13.474;2023-07-29T05:24:00;18.90;99.90
15036;DHT22;7615;48.574;13.474;2023-07-29T05:26:26;18.90;99.90
15036;DHT22;7615;48.574;13.474;2023-07-29T05:28:53;18.80;99.90
15036;DHT22;7615;48.574;13.474;2023-07-29T05:31:21;18.70;99.90
15036;DHT22;7615;48.574;13.474;2023-07-29T05:33:48;18.60;99.90
15036;DHT22;7615;48.574;13.474;2023-07-29T05:36:15;18.70;99.90
15036;DHT22;7615;48.574;13.474;2023-07-29T05:38:41;18.70;99.90
15036;DHT22;7615;48.574;13.474;2023-07-29T05:41:10;18.80;99.90
15036;DHT22;7615;48.574;13.474;2023-07-29T05:43:37;18.80;99.90
15036;DHT22;7615;48.574;13.474;2023-07-29T05:46:04;18.80;99.90
15036;DHT22;7615;48.574;13.474;2023-07-29T05:48:32;18.80;99.90
15036;DHT22;7615;48.574;13.474;2023-07-29T05:50:59;18.90;99.90
15036;DHT22;7615;48.574;13.474;2023-07-29T05:53:26;18.90;99.90
15036;DHT22;7615;48.574;13.474;2023-07-29T05:56:07;18.90;99.90
15036;DHT22;7615;48.574;13.474;2023-07-29T05:58:45;19.00;99.90
15036;DHT22;7615;48.574;13.474;2023-07-29T06:01:18;19.00;99.90
15036;DHT22;7615;48.574;13.474;2023-07-29T06:03:46;19.10;99.90
15036;DHT22;7615;48.574;13.474;2023-07-29T06:06:13;19.20;99.90
15036;DHT22;7615;48.574;13.474;2023-07-29T06:08:40;19.30;99.90
15036;DHT22;7615;48.574;13.474;2023-07-29T06:11:07;19.40;99.90
15036;DHT22;7615;48.574;13.474;2023-07-29T06:13:47;19.50;99.90
15036;DHT22;7615;48.574;13.474;2023-07-29T06:16:14;19.60;99.90
15036;DHT22;7615;48.574;13.474;2023-07-29T06:18:45;19.60;99.90
15036;DHT22;7615;48.574;13.474;2023-07-29T06:21:12;19.70;99.90
15036;DHT22;7615;48.574;13.474;2023-07-29T06:23:42;19.90;99.90
15036;DHT22;7615;48.574;13.474;2023-07-29T06:26:19;20.10;99.90
15036;DHT22;7615;48.574;13.474;2023-07-29T06:32:25;20.30;99.90
15036;DHT22;7615;48.574;13.474;2023-07-29T06:34:52;20.40;99.90
15036;DHT22;7615;48.574;13.474;2023-07-29T06:37:21;20.50;99.90
15036;DHT22;7615;48.574;13.474;2023-07-29T06:39:51;20.50;99.90
15036;DHT22;7615;48.574;13.474;2023-07-29T06:42:19;20.50;99.90
15036;DHT22;7615;48.574;13.474;2023-07-29T06:44:47;20.60;99.90
15036;DHT22;7615;48.574;13.474;2023-07-29T06:47:14;20.60;99.90
15036;DHT22;7615;48.574;13.474;2023-07-29T06:49:41;20.80;99.90
15036;DHT22;7615;48.574;13.474;2023-07-29T06:52:08;20.90;99.90
15036;DHT22;7615;48.574;13.474;2023-07-29T06:54:44;21.00;99.90
15036;DHT22;7615;48.574;13.474;2023-07-29T06:57:21;21.20;99.90
15036;DHT22;7615;48.574;13.474;2023-07-29T06:59:50;21.20;99.90
15036;DHT22;7615;48.574;13.474;2023-07-29T07:02:17;21.10;99.90
15036;DHT22;7615;48.574;13.474;2023-07-29T07:04:45;21.10;99.90
15036;DHT22;7615;48.574;13.474;2023-07-29T07:07:12;21.20;99.90
15036;DHT22;7615;48.574;13.474;2023-07-29T07:09:39;21.30;99.90
15036;DHT22;7615;48.574;13.474;2023-07-29T07:12:07;21.40;99.90
15036;DHT22;7615;48.574;13.474;2023-07-29T07:14:33;21.40;99.90
15036;DHT22;7615;48.574;13.474;2023-07-29T07:17:02;21.40;99.90
15036;DHT22;7615;48.574;13.474;2023-07-29T07:19:31;21.60;99.90
15036;DHT22;7615;48.574;13.474;2023-07-29T07:21:58;21.70;99.90
15036;DHT22;7615;48.574;13.474;2023-07-29T07:24:25;21.80;99.90
15036;DHT22;7615;48.574;13.474;2023-07-29T07:26:52;21.80;99.90
15036;DHT22;7615;48.574;13.474;2023-07-29T07:29:19;21.80;99.90
15036;DHT22;7615;48.574;13.474;2023-07-29T07:31:50;21.80;99.90
15036;DHT22;7615;48.574;13.474;2023-07-29T07:34:19;21.80;99.90
15036;DHT22;7615;48.574;13.474;2023-07-29T07:36:46;22.10;99.90
15036;DHT22;7615;48.574;13.474;2023-07-29T07:39:13;22.10;99.90
15036;DHT22;7615;48.574;13.474;2023-07-29T07:41:41;22.20;99.90
15036;DHT22;7615;48.574;13.474;2023-07-29T07:44:08;22.30;99.90
15036;DHT22;7615;48.574;13.474;2023-07-29T07:46:36;22.30;99.90
15036;DHT22;7615;48.574;13.474;2023-07-29T07:49:03;22.30;99.90
15036;DHT22;7615;48.574;13.474;2023-07-29T07:51:34;22.40;99.90
15036;DHT22;7615;48.574;13.474;2023-07-29T07:54:01;22.40;99.90
15036;DHT22;7615;48.574;13.474;2023-07-29T07:56:27;22.40;99.90
15036;DHT22;7615;48.574;13.474;2023-07-29T07:58:54;22.50;99.90
15036;DHT22;7615;48.574;13.474;2023-07-29T08:01:21;22.50;99.90
15036;DHT22;7615;48.574;13.474;2023-07-29T08:03:48;22.40;99.90
15036;DHT22;7615;48.574;13.474;2023-07-29T08:06:15;22.50;99.90
15036;DHT22;7615;48.574;13.474;2023-07-29T08:11:10;23.30;99.90
15036;DHT22;7615;48.574;13.474;2023-07-29T08:13:37;23.40;99.90
15036;DHT22;7615;48.574;13.474;2023-07-29T08:16:04;23.30;99.90
15036;DHT22;7615;48.574;13.474;2023-07-29T08:18:31;23.10;99.90
15036;DHT22;7615;48.574;13.474;2023-07-29T08:20:59;22.80;99.90
15036;DHT22;7615;48.574;13.474;2023-07-29T08:23:30;22.60;99.90
15036;DHT22;7615;48.574;13.474;2023-07-29T08:26:01;22.40;99.90
15036;DHT22;7615;48.574;13.474;2023-07-29T08:28:31;22.50;99.90
15036;DHT22;7615;48.574;13.474;2023-07-29T08:30:58;22.70;99.90
15036;DHT22;7615;48.574;13.474;2023-07-29T08:33:26;22.80;99.90
15036;DHT22;7615;48.574;13.474;2023-07-29T08:40:53;23.80;99.90
15036;DHT22;7615;48.574;13.474;2023-07-29T08:43:28;23.80;99.90
15036;DHT22;7615;48.574;13.474;2023-07-29T08:45:57;23.80;99.90
15036;DHT22;7615;48.574;13.474;2023-07-29T09:08:14;22.10;99.90
15036;DHT22;7615;48.574;13.474;2023-07-29T09:10:41;21.60;99.90
15036;DHT22;7615;48.574;13.474;2023-07-29T09:13:08;21.00;99.90
15036;DHT22;7615;48.574;13.474;2023-07-29T09:15:37;20.60;99.90
15036;DHT22;7615;48.574;13.474;2023-07-29T09:18:12;20.20;99.90
15036;DHT22;7615;48.574;13.474;2023-07-29T09:20:39;19.90;99.90
15036;DHT22;7615;48.574;13.474;2023-07-29T09:23:07;19.60;99.90
15036;DHT22;7615;48.574;13.474;2023-07-29T09:25:35;19.70;99.90
15036;DHT22;7615;48.574;13.474;2023-07-29T09:28:09;19.60;99.90
15036;DHT22;7615;48.574;13.474;2023-07-29T09:30:38;19.60;99.90
15036;DHT22;7615;48.574;13.474;2023-07-29T09:33:05;19.60;99.90
15036;DHT22;7615;48.574;13.474;2023-07-29T09:35:34;19.60;99.90
15036;DHT22;7615;48.574;13.474;2023-07-29T09:38:01;19.60;99.90
15036;DHT22;7615;48.574;13.474;2023-07-29T09:40:34;19.60;99.90
15036;DHT22;7615;48.574;13.474;2023-07-29T09:43:02;19.50;99.90
15036;DHT22;7615;48.574;13.474;2023-07-29T09:45:29;19.40;99.90
15036;DHT22;7615;48.574;13.474;2023-07-29T09:48:00;19.40;99.90
15036;DHT22;7615;48.574;13.474;2023-07-29T09:50:27;19.30;99.90
15036;DHT22;7615;48.574;13.474;2023-07-29T09:52:55;19.40;99.90
15036;DHT22;7615;48.574;13.474;2023-07-29T09:55:24;19.50;99.90
15036;DHT22;7615;48.574;13.474;2023-07-29T09:57:54;19.70;99.90
15036;DHT22;7615;48.574;13.474;2023-07-29T10:00:22;19.90;99.90
15036;DHT22;7615;48.574;13.474;2023-07-29T10:02:50;20.00;99.90
15036;DHT22;7615;48.574;13.474;2023-07-29T10:05:19;20.20;99.90
15036;DHT22;7615;48.574;13.474;2023-07-29T10:07:47;20.20;99.90
15036;DHT22;7615;48.574;13.474;2023-07-29T10:10:15;20.30;99.90
15036;DHT22;7615;48.574;13.474;2023-07-29T10:12:43;20.40;99.90
15036;DHT22;7615;48.574;13.474;2023-07-29T10:15:10;20.30;99.90
15036;DHT22;7615;48.574;13.474;2023-07-29T10:17:38;20.30;99.90
15036;DHT22;7615;48.574;13.474;2023-07-29T10:20:07;20.30;99.90
15036;DHT22;7615;48.574;13.474;2023-07-29T10:22:36;20.30;99.90
15036;DHT22;7615;48.574;13.474;2023-07-29T10:25:05;20.30;99.90
15036;DHT22;7615;48.574;13.474;2023-07-29T10:27:42;20.30;99.90
15036;DHT22;7615;48.574;13.474;2023-07-29T10:30:11;20.40;99.90
15036;DHT22;7615;48.574;13.474;2023-07-29T10:32:39;20.60;99.90
15036;DHT22;7615;48.574;13.474;2023-07-29T10:35:08;20.60;99.90
15036;DHT22;7615;48.574;13.474;2023-07-29T10:37:37;20.70;99.90
15036;DHT22;7615;48.574;13.474;2023-07-29T10:40:07;20.90;99.90
15036;DHT22;7615;48.574;13.474;2023-07-29T10:42:35;21.10;99.90
15036;DHT22;7615;48.574;13.474;2023-07-29T11:03:05;23.40;99.90
15036;DHT22;7615;48.574;13.474;2023-07-29T11:05:49;23.40;99.90
15036;DHT22;7615;48.574;13.474;2023-07-29T11:08:22;23.00;99.90
15036;DHT22;7615;48.574;13.474;2023-07-29T11:11:02;23.00;99.90
15036;DHT22;7615;48.574;13.474;2023-07-29T11:13:29;22.90;99.90
15036;DHT22;7615;48.574;13.474;2023-07-29T11:15:58;22.90;99.90
15036;DHT22;7615;48.574;13.474;2023-07-29T11:18:27;22.90;99.90
15036;DHT22;7615;48.574;13.474;2023-07-29T11:20:55;22.80;99.90
15036;DHT22;7615;48.574;13.474;2023-07-29T11:23:31;22.80;99.90
15036;DHT22;7615;48.574;13.474;2023-07-29T11:25:58;22.80;99.90
15036;DHT22;7615;48.574;13.474;2023-07-29T11:28:26;22.80;99.90
15036;DHT22;7615;48.574;13.474;2023-07-29T11:30:54;22.90;99.90
15036;DHT22;7615;48.574;13.474;2023-07-29T11:33:22;22.90;99.90
15036;DHT22;7615;48.574;13.474;2023-07-29T11:35:49;22.90;99.90
15036;DHT22;7615;48.574;13.474;2023-07-29T11:40:54;23.30;99.90
15036;DHT22;7615;48.574;13.474;2023-07-29T11:43:20;23.80;99.90
15036;DHT22;7615;48.574;13.474;2023-07-29T11:45:47;23.90;99.90
15036;DHT22;7615;48.574;13.474;2023-07-29T11:48:14;24.20;99.90
15036;DHT22;7615;48.574;13.474;2023-07-29T11:50:41;24.50;99.90
15036;DHT22;7615;48.574;13.474;2023-07-29T22:01:14;19.90;99.90
15036;DHT22;7615;48.574;13.474;2023-07-29T22:03:42;19.90;99.90
15036;DHT22;7615;48.574;13.474;2023-07-29T22:06:09;19.80;99.90
15036;DHT22;7615;48.574;13.474;2023-07-29T22:08:36;19.80;99.90
15036;DHT22;7615;48.574;13.474;2023-07-29T22:11:04;19.80;99.90
15036;DHT22;7615;48.574;13.474;2023-07-29T22:13:31;19.80;99.90
15036;DHT22;7615;48.574;13.474;2023-07-29T22:15:59;19.90;99.90
15036;DHT22;7615;48.574;13.474;2023-07-29T22:18:26;19.90;99.90
15036;DHT22;7615;48.574;13.474;2023-07-29T22:20:55;19.80;99.90
15036;DHT22;7615;48.574;13.474;2023-07-29T22:23:22;19.90;99.90
15036;DHT22;7615;48.574;13.474;2023-07-29T22:25:56;19.80;99.90
15036;DHT22;7615;48.574;13.474;2023-07-29T22:28:23;19.80;99.90
15036;DHT22;7615;48.574;13.474;2023-07-29T22:30:54;19.80;99.90
15036;DHT22;7615;48.574;13.474;2023-07-29T22:33:24;19.80;99.90
15036;DHT22;7615;48.574;13.474;2023-07-29T22:35:50;19.80;99.90
15036;DHT22;7615;48.574;13.474;2023-07-29T22:38:19;19.80;99.90
15036;DHT22;7615;48.574;13.474;2023-07-29T22:40:50;19.80;99.90
15036;DHT22;7615;48.574;13.474;2023-07-29T22:43:18;19.80;99.90
15036;DHT22;7615;48.574;13.474;2023-07-29T22:45:50;19.80;99.90
15036;DHT22;7615;48.574;13.474;2023-07-29T22:48:17;19.70;99.90
15036;DHT22;7615;48.574;13.474;2023-07-29T22:50:44;19.80;99.90
15036;DHT22;7615;48.574;13.474;2023-07-29T22:53:12;19.70;99.90
15036;DHT22;7615;48.574;13.474;2023-07-29T22:55:41;19.80;99.90
15036;DHT22;7615;48.574;13.474;2023-07-29T22:58:08;19.80;99.90
15036;DHT22;7615;48.574;13.474;2023-07-29T23:00:35;19.80;99.90
15036;DHT22;7615;48.574;13.474;2023-07-29T23:03:02;19.80;99.90
15036;DHT22;7615;48.574;13.474;2023-07-29T23:05:29;19.80;99.90
15036;DHT22;7615;48.574;13.474;2023-07-29T23:07:56;19.80;99.90
15036;DHT22;7615;48.574;13.474;2023-07-29T23:10:23;19.90;99.90
15036;DHT22;7615;48.574;13.474;2023-07-29T23:12:51;19.80;99.90
15036;DHT22;7615;48.574;13.474;2023-07-29T23:15:18;19.80;99.90
15036;DHT22;7615;48.574;13.474;2023-07-29T23:17:45;19.80;99.90
15036;DHT22;7615;48.574;13.474;2023-07-29T23:20:12;19.80;99.90
15036;DHT22;7615;48.574;13.474;2023-07-29T23:22:38;19.80;99.90
15036;DHT22;7615;48.574;13.474;2023-07-29T23:25:06;19.80;99.90
15036;DHT22;7615;48.574;13.474;2023-07-29T23:27:33;19.80;99.90
15036;DHT22;7615;48.574;13.474;2023-07-29T23:30:01;19.70;99.90
15036;DHT22;7615;48.574;13.474;2023-07-29T23:32:28;19.60;99.90
15036;DHT22;7615;48.574;13.474;2023-07-29T23:34:55;19.70;99.90
